Time;durP1;ratioP1;P1;durP2;ratioP2;P2;SDS_P1;SDS_P2;PMS_P1;PMS_P2;Temp;Humidity;BMP_temperature;BMP_pressure;BME280_temperature;BME280_humidity;BME280_pressure;Samples;Min_cycle;Max_cycle;Signal;HPM_P1;HPM_P2
2023/04/15 00:01:35;;;;;;;18.25;13.18;;;;;;;8.23;77.96;99159.34;1610847;87;21096;-59
2023/04/15 00:04:02;;;;;;;15.18;12.80;;;;;;;8.23;78.62;99165.84;1613222;87;21070;-58
2023/04/15 00:06:28;;;;;;;14.98;12.13;;;;;;;8.26;78.37;99161.80;1608587;87;20991;-58
2023/04/15 00:08:55;;;;;;;16.07;12.80;;;;;;;8.33;78.64;99161.05;1614364;87;21122;-58
2023/04/15 00:11:21;;;;;;;14.53;12.28;;;;;;;8.42;78.87;99167.59;1613102;87;21008;-58
2023/04/15 00:13:47;;;;;;;15.63;12.03;;;;;;;8.48;78.84;99164.70;1613378;87;21018;-58
2023/04/15 00:16:13;;;;;;;14.50;11.68;;;;;;;8.51;78.68;99161.95;1612774;87;21085;-58
2023/04/15 00:18:40;;;;;;;14.63;12.05;;;;;;;8.55;78.32;99154.40;1617912;87;20987;-58
2023/04/15 00:21:06;;;;;;;16.23;11.93;;;;;;;8.59;78.59;99161.13;1614563;87;21054;-58
2023/04/15 00:23:35;;;;;;;13.95;11.63;;;;;;;8.59;78.50;99168.94;1615235;87;21094;-58
2023/04/15 00:26:01;;;;;;;14.03;11.80;;;;;;;8.64;78.73;99160.45;1614720;87;21082;-58
2023/04/15 00:28:28;;;;;;;13.03;11.57;;;;;;;8.65;78.89;99162.13;1616147;87;20983;-58
2023/04/15 00:30:55;;;;;;;15.35;12.45;;;;;;;8.70;78.53;99162.75;1617492;87;21028;-58
2023/04/15 00:33:21;;;;;;;13.00;11.57;;;;;;;8.70;78.65;99166.66;1612236;87;21004;-62
2023/04/15 00:35:47;;;;;;;13.98;11.85;;;;;;;8.69;78.48;99162.37;1612198;87;21597;-58
2023/04/15 00:38:14;;;;;;;13.38;11.55;;;;;;;8.66;78.65;99159.93;1612989;87;21036;-61
2023/04/15 00:40:41;;;;;;;13.60;11.08;;;;;;;8.68;78.81;99162.00;1615696;87;21097;-58
2023/04/15 00:43:07;;;;;;;17.92;12.47;;;;;;;8.66;78.45;99156.02;1616021;87;21030;-62
2023/04/15 00:45:33;;;;;;;14.78;11.93;;;;;;;8.69;78.45;99158.47;1609678;87;21057;-58
2023/04/15 00:47:59;;;;;;;16.30;12.95;;;;;;;8.69;78.39;99171.48;1619010;87;20968;-58
2023/04/15 00:50:26;;;;;;;15.05;12.25;;;;;;;8.72;78.90;99157.48;1618144;87;21269;-58
2023/04/15 00:52:52;;;;;;;16.10;12.55;;;;;;;8.74;78.38;99151.30;1615381;87;21104;-58
2023/04/15 00:55:19;;;;;;;15.00;11.90;;;;;;;8.73;78.42;99160.00;1615155;87;21542;-58
2023/04/15 00:57:46;;;;;;;17.82;11.78;;;;;;;8.75;79.21;99150.83;1613159;87;21043;-58
2023/04/15 01:00:14;;;;;;;13.48;12.05;;;;;;;8.81;79.03;99158.80;1613892;87;21024;-58
2023/04/15 01:02:41;;;;;;;15.23;11.65;;;;;;;8.86;78.48;99151.61;1611869;87;21118;-58
2023/04/15 01:05:08;;;;;;;15.90;11.97;;;;;;;8.86;78.63;99153.75;1616464;87;21054;-58
2023/04/15 01:07:34;;;;;;;14.15;11.95;;;;;;;8.87;78.46;99150.67;1615710;86;21000;-59
2023/04/15 01:10:03;;;;;;;14.87;12.33;;;;;;;8.88;78.34;99154.98;1619393;87;20960;-60
2023/04/15 01:12:31;;;;;;;14.13;11.60;;;;;;;8.89;78.23;99151.45;1613154;87;21023;-58
2023/04/15 01:15:00;;;;;;;16.80;12.63;;;;;;;8.85;78.32;99152.51;1617910;87;21100;-58
2023/04/15 01:17:27;;;;;;;16.17;12.18;;;;;;;8.83;78.70;99158.27;1615614;87;21510;-58
2023/04/15 01:19:56;;;;;;;12.28;10.03;;;;;;;8.82;78.44;99155.27;1618383;87;21597;-58
2023/04/15 01:22:25;;;;;;;15.18;12.30;;;;;;;8.81;78.36;99153.59;1612018;87;21040;-58
2023/04/15 01:25:01;;;;;;;16.82;12.93;;;;;;;8.80;78.46;99149.31;1613332;87;21542;-58
2023/04/15 01:27:27;;;;;;;15.00;12.82;;;;;;;8.80;78.44;99141.50;1613406;87;21104;-58
2023/04/15 01:29:53;;;;;;;13.38;11.88;;;;;;;8.76;78.50;99141.25;1611616;87;21051;-58
2023/04/15 01:32:19;;;;;;;13.83;12.47;;;;;;;8.73;78.28;99140.94;1616894;87;20999;-58
2023/04/15 01:34:47;;;;;;;14.10;12.60;;;;;;;8.69;78.63;99142.86;1611039;87;20990;-58
2023/04/15 01:37:13;;;;;;;13.88;12.03;;;;;;;8.68;78.65;99141.19;1615634;87;21007;-58
2023/04/15 01:39:40;;;;;;;19.42;13.05;;;;;;;8.67;78.61;99144.69;1612018;87;21054;-58
2023/04/15 01:42:06;;;;;;;15.48;12.47;;;;;;;8.66;78.52;99153.42;1619406;87;21047;-60
2023/04/15 01:44:32;;;;;;;17.73;13.90;;;;;;;8.68;78.88;99156.80;1613326;87;21041;-58
2023/04/15 01:46:59;;;;;;;18.73;12.40;;;;;;;8.68;78.88;99156.80;1616273;86;21015;-58
2023/04/15 01:49:26;;;;;;;15.60;12.53;;;;;;;8.70;78.77;99147.14;1613246;86;21032;-58
2023/04/15 01:51:53;;;;;;;15.23;12.20;;;;;;;8.71;78.71;99147.97;1613261;87;21043;-58
2023/04/15 01:54:19;;;;;;;15.85;11.85;;;;;;;8.72;79.04;99150.52;1623998;87;21044;-58
2023/04/15 01:56:45;;;;;;;15.72;12.80;;;;;;;8.74;78.81;99155.66;1618458;87;21054;-58
2023/04/15 01:59:12;;;;;;;15.08;12.03;;;;;;;8.75;78.85;99146.92;1614239;87;20988;-64
2023/04/15 02:01:40;;;;;;;16.60;13.05;;;;;;;8.70;78.47;99143.23;1621216;86;21145;-58
2023/04/15 02:04:06;;;;;;;14.60;12.58;;;;;;;8.58;78.55;99139.94;1621883;86;21099;-58
2023/04/15 02:06:33;;;;;;;16.40;12.13;;;;;;;8.55;78.96;99145.29;1625510;86;21047;-58
2023/04/15 02:09:01;;;;;;;14.38;11.80;;;;;;;8.52;79.01;99140.23;1606205;86;21082;-58
2023/04/15 02:11:27;;;;;;;14.93;12.87;;;;;;;8.46;78.88;99161.35;1606107;86;21038;-58
2023/04/15 02:13:54;;;;;;;17.10;13.10;;;;;;;8.40;79.08;99149.91;1622682;86;21076;-58
2023/04/15 02:16:20;;;;;;;13.43;12.03;;;;;;;8.36;79.24;99148.35;1624741;86;21036;-58
2023/04/15 02:18:47;;;;;;;13.85;11.63;;;;;;;8.38;79.16;99145.23;1627424;86;21045;-58
2023/04/15 02:21:13;;;;;;;17.02;12.45;;;;;;;8.39;79.67;99146.94;1624737;86;20956;-58
2023/04/15 02:23:39;;;;;;;14.58;12.23;;;;;;;8.44;80.09;99151.47;1623047;86;21031;-58
2023/04/15 02:26:06;;;;;;;12.60;10.90;;;;;;;8.46;79.65;99150.94;1622301;86;21118;-58
2023/04/15 02:28:33;;;;;;;14.28;11.97;;;;;;;8.53;80.20;99153.63;1618230;86;21043;-58
2023/04/15 02:31:01;;;;;;;16.67;11.30;;;;;;;8.58;79.63;99152.95;1623578;86;21110;-60
2023/04/15 02:33:27;;;;;;;14.05;11.50;;;;;;;8.63;79.90;99153.58;1618243;86;21031;-58
2023/04/15 02:35:53;;;;;;;15.35;11.45;;;;;;;8.68;79.56;99154.20;1621787;85;20979;-58
2023/04/15 02:38:19;;;;;;;13.83;11.55;;;;;;;8.71;79.76;99159.25;1618470;86;20981;-58
2023/04/15 02:40:48;;;;;;;13.03;10.43;;;;;;;8.76;79.70;99158.17;1625287;86;20952;-58
2023/04/15 02:43:14;;;;;;;12.50;10.35;;;;;;;8.82;79.76;99159.17;1620452;85;20949;-58
2023/04/15 02:45:42;;;;;;;12.90;8.70;;;;;;;8.86;79.56;99159.42;1621010;86;21154;-58
2023/04/15 02:48:09;;;;;;;12.45;10.03;;;;;;;8.86;79.92;99163.33;1616972;86;21070;-58
2023/04/15 02:50:38;;;;;;;10.60;8.60;;;;;;;8.94;79.55;99166.39;1621089;86;21010;-58
2023/04/15 02:53:04;;;;;;;12.53;10.72;;;;;;;8.98;79.50;99173.13;1620415;86;21122;-58
2023/04/15 02:55:31;;;;;;;14.13;10.50;;;;;;;8.98;79.39;99169.22;1620627;86;21487;-58
2023/04/15 02:57:59;;;;;;;13.60;10.08;;;;;;;9.03;79.42;99168.53;1618407;86;21544;-58
2023/04/15 03:00:26;;;;;;;11.22;9.63;;;;;;;9.07;79.12;99164.84;1621050;86;20975;-58
2023/04/15 03:02:58;;;;;;;12.28;10.70;;;;;;;9.04;79.12;99163.70;1623137;86;20995;-58
2023/04/15 03:05:25;;;;;;;18.25;10.60;;;;;;;9.04;79.08;99158.48;1624102;86;21067;-58
2023/04/15 03:07:52;;;;;;;14.38;10.00;;;;;;;9.07;79.21;99166.14;1621552;86;21045;-59
2023/04/15 03:10:18;;;;;;;11.20;9.40;;;;;;;9.09;78.92;99172.13;1624012;85;21047;-58
2023/04/15 03:12:47;;;;;;;12.75;9.98;;;;;;;9.07;78.73;99175.27;1618323;86;21027;-60
2023/04/15 03:15:13;;;;;;;15.50;9.93;;;;;;;9.07;78.73;99175.27;1623566;86;21031;-58
2023/04/15 03:17:39;;;;;;;11.97;10.13;;;;;;;9.10;79.10;99169.93;1625848;86;21644;-58
2023/04/15 03:20:07;;;;;;;11.60;10.35;;;;;;;9.12;78.68;99169.37;1628785;86;21526;-58
2023/04/15 03:22:33;;;;;;;;;;;;;;;9.09;78.89;99177.34;1623625;86;20978;-58
2023/04/15 03:24:59;;;;;;;12.88;10.45;;;;;;;9.10;78.76;99181.65;1622602;86;21073;-58
2023/04/15 03:27:26;;;;;;;11.80;9.63;;;;;;;9.05;78.67;99188.84;1618401;86;21102;-58
2023/04/15 03:29:52;;;;;;;10.82;9.45;;;;;;;9.02;78.84;99187.69;1621786;86;21117;-58
2023/04/15 03:32:19;;;;;;;14.53;10.25;;;;;;;9.00;78.64;99185.61;1616327;86;21011;-58
2023/04/15 03:34:45;;;;;;;13.50;10.00;;;;;;;8.93;78.66;99169.89;1622973;86;21081;-58
2023/04/15 03:37:11;;;;;;;11.57;9.88;;;;;;;8.93;78.66;99169.89;1621187;86;21495;-58
2023/04/15 03:39:38;;;;;;;8.93;8.05;;;;;;;8.91;78.58;99183.47;1619603;86;21016;-59
2023/04/15 03:42:04;;;;;;;12.23;10.23;;;;;;;8.87;78.69;99174.11;1619209;86;21058;-58
2023/04/15 03:44:30;;;;;;;13.20;10.43;;;;;;;8.84;78.69;99175.56;1620978;86;21044;-58
2023/04/15 03:46:56;;;;;;;12.10;10.80;;;;;;;8.83;78.84;99183.00;1624134;86;21030;-58
2023/04/15 03:49:23;;;;;;;13.32;10.25;;;;;;;8.86;78.53;99173.73;1620306;86;20974;-58
2023/04/15 03:51:49;;;;;;;11.95;8.93;;;;;;;8.81;78.58;99179.63;1625968;86;21117;-58
2023/04/15 03:54:16;;;;;;;13.32;11.75;;;;;;;8.78;78.81;99178.01;1623866;86;21075;-63
2023/04/15 03:56:42;;;;;;;12.33;10.65;;;;;;;8.81;78.66;99182.22;1625125;86;20943;-58
2023/04/15 03:59:08;;;;;;;14.58;11.30;;;;;;;8.82;78.75;99179.99;1622884;86;21589;-59
2023/04/15 04:01:35;;;;;;;13.80;10.53;;;;;;;8.82;78.57;99176.09;1623513;86;21070;-58
2023/04/15 04:04:03;;;;;;;13.48;10.82;;;;;;;8.79;78.54;99166.67;1625172;86;21063;-58
2023/04/15 04:06:29;;;;;;;14.60;11.28;;;;;;;8.80;78.54;99172.74;1621122;86;21035;-58
2023/04/15 04:08:56;;;;;;;12.93;11.57;;;;;;;8.78;78.31;99182.38;1623713;86;21536;-58
2023/04/15 04:11:22;;;;;;;13.68;12.13;;;;;;;8.71;78.56;99177.47;1621893;86;21705;-58
2023/04/15 04:13:49;;;;;;;22.27;11.60;;;;;;;8.71;78.59;99186.58;1623894;86;21019;-58
2023/04/15 04:16:17;;;;;;;12.58;10.85;;;;;;;8.67;78.38;99181.12;1621896;86;21537;-58
2023/04/15 04:18:43;;;;;;;16.65;11.50;;;;;;;8.66;78.50;99186.42;1623687;86;21486;-58
2023/04/15 04:21:11;;;;;;;15.40;11.38;;;;;;;8.60;78.54;99184.95;1624383;86;21618;-58
2023/04/15 04:23:36;;;;;;;;;;;;;;;8.62;78.79;99184.86;1623042;86;21051;-58
2023/04/15 04:26:05;;;;;;;15.43;11.63;;;;;;;8.61;79.15;99182.72;1621224;86;20176;-58
2023/04/15 04:28:31;;;;;;;14.73;12.80;;;;;;;8.60;79.26;99186.25;1605361;88;21552;-59
2023/04/15 04:30:58;;;;;;;15.45;12.13;;;;;;;8.62;79.02;99181.80;1609103;87;21672;-57
2023/04/15 04:33:25;;;;;;;14.23;12.37;;;;;;;8.61;78.84;99181.42;1603137;88;21474;-58
2023/04/15 04:35:51;;;;;;;14.20;12.18;;;;;;;8.63;79.16;99190.01;1609574;87;21114;-62
2023/04/15 04:38:17;;;;;;;15.23;11.57;;;;;;;8.65;79.44;99191.22;1607384;88;21011;-58
2023/04/15 04:40:44;;;;;;;13.60;11.63;;;;;;;8.66;78.94;99179.45;1606961;87;21009;-58
2023/04/15 04:43:10;;;;;;;15.75;12.20;;;;;;;8.65;79.39;99193.36;1623987;86;21062;-58
2023/04/15 04:45:36;;;;;;;16.90;11.57;;;;;;;8.67;79.10;99170.71;1625768;86;21086;-58
2023/04/15 04:48:05;;;;;;;19.00;13.35;;;;;;;8.64;79.15;99179.97;1623658;86;21015;-57
2023/04/15 04:50:32;;;;;;;15.05;12.30;;;;;;;8.67;79.26;99181.12;1621560;86;22106;-60
2023/04/15 04:52:59;;;;;;;16.17;12.58;;;;;;;8.67;79.60;99194.13;1623997;86;21028;-58
2023/04/15 04:55:27;;;;;;;18.27;12.43;;;;;;;8.71;79.52;99193.52;1622340;86;21035;-60
2023/04/15 04:57:54;;;;;;;13.40;11.93;;;;;;;8.76;79.67;99177.69;1619807;86;21050;-58
2023/04/15 05:00:21;;;;;;;13.43;11.88;;;;;;;8.76;79.93;99202.42;1620180;86;21374;-58
2023/04/15 05:02:49;;;;;;;17.57;12.60;;;;;;;8.77;79.55;99191.95;1613958;86;21483;-58
2023/04/15 05:05:16;;;;;;;14.23;11.40;;;;;;;8.78;79.97;99200.59;1617459;87;21067;-58
2023/04/15 05:07:42;;;;;;;15.98;12.73;;;;;;;8.81;79.76;99199.14;1610621;87;21608;-58
2023/04/15 05:10:09;;;;;;;14.68;11.35;;;;;;;8.80;79.80;99193.56;1608423;87;21684;-58
2023/04/15 05:12:37;;;;;;;14.25;12.33;;;;;;;8.82;80.23;99200.39;1618841;87;21115;-58
2023/04/15 05:15:04;;;;;;;;;;;;;;;8.86;80.51;99204.98;1620762;87;21085;-59
2023/04/15 05:17:32;;;;;;;13.13;11.05;;;;;;;8.88;80.40;99197.94;1618926;87;20179;-58
2023/04/15 05:19:58;;;;;;;17.37;11.70;;;;;;;8.91;80.07;99204.30;1614502;87;21019;-58
2023/04/15 05:22:24;;;;;;;22.10;11.70;;;;;;;8.95;80.54;99218.84;1612695;87;21504;-58
2023/04/15 05:24:51;;;;;;;11.65;8.95;;;;;;;9.04;80.13;99194.95;1616233;87;21485;-58
2023/04/15 05:27:18;;;;;;;16.17;11.85;;;;;;;9.04;80.13;99194.95;1618489;87;21435;-58
2023/04/15 05:29:44;;;;;;;14.30;11.68;;;;;;;8.99;80.24;99196.96;1620832;87;21591;-58
2023/04/15 05:32:11;;;;;;;11.48;9.70;;;;;;;9.01;80.32;99197.70;1610393;87;21606;-58
2023/04/15 05:34:37;;;;;;;15.40;10.40;;;;;;;9.04;80.43;99194.95;1620704;87;21114;-58
2023/04/15 05:37:05;;;;;;;13.68;11.45;;;;;;;9.06;80.00;99195.72;1614793;87;21082;-58
2023/04/15 05:39:33;;;;;;;14.68;11.08;;;;;;;9.01;80.27;99199.47;1617042;85;21716;-58
2023/04/15 05:41:59;;;;;;;15.45;12.00;;;;;;;9.05;80.24;99195.81;1616707;87;21018;-59
2023/04/15 05:44:26;;;;;;;16.10;11.97;;;;;;;9.04;79.99;99200.16;1614078;87;21582;-58
2023/04/15 05:46:54;;;;;;;10.30;9.20;;;;;;;9.11;80.11;99210.67;1614508;87;21167;-63
2023/04/15 05:49:20;;;;;;;13.03;10.85;;;;;;;9.15;80.23;99201.77;1615966;87;21194;-58
2023/04/15 05:51:48;;;;;;;16.17;11.33;;;;;;;9.21;80.13;99190.67;1613992;87;21007;-58
2023/04/15 05:54:16;;;;;;;11.22;9.13;;;;;;;9.21;80.09;99215.41;1612798;87;21111;-58
2023/04/15 05:56:42;;;;;;;13.48;11.20;;;;;;;9.23;80.06;99199.26;1618437;87;21024;-58
2023/04/15 05:59:08;;;;;;;10.90;9.13;;;;;;;9.34;80.14;99200.86;1616021;86;20992;-58
2023/04/15 06:01:34;;;;;;;14.03;11.60;;;;;;;9.34;79.88;99204.77;1619839;86;21075;-58
2023/04/15 06:04:01;;;;;;;13.53;11.08;;;;;;;9.30;79.52;99203.22;1628245;86;21059;-58
2023/04/15 06:06:27;;;;;;;16.23;12.03;;;;;;;9.24;79.70;99208.74;1633026;86;20983;-58
2023/04/15 06:08:57;;;;;;;15.88;11.90;;;;;;;9.16;79.86;99230.83;1633255;86;21047;-58
2023/04/15 06:11:26;;;;;;;13.98;11.20;;;;;;;9.14;79.93;99206.61;1612231;87;21510;-58
2023/04/15 06:13:52;;;;;;;20.32;11.75;;;;;;;9.24;80.12;99211.34;1632016;86;21557;-58
2023/04/15 06:16:18;;;;;;;14.60;10.88;;;;;;;9.35;79.99;99211.66;1634506;86;21581;-58
2023/04/15 06:18:44;;;;;;;13.60;11.45;;;;;;;9.38;79.64;99218.02;1625217;86;21517;-58
2023/04/15 06:21:11;;;;;;;16.25;11.20;;;;;;;9.40;79.72;99214.88;1631078;86;21048;-58
2023/04/15 06:23:40;;;;;;;15.48;11.57;;;;;;;9.46;79.67;99209.34;1629812;86;21008;-58
2023/04/15 06:26:09;;;;;;;14.35;11.12;;;;;;;9.47;79.36;99211.05;1631864;86;20975;-58
2023/04/15 06:28:35;;;;;;;14.95;11.60;;;;;;;9.42;79.26;99219.56;1631911;86;21046;-58
2023/04/15 06:31:05;;;;;;;14.50;10.68;;;;;;;9.43;79.56;99214.72;1608342;87;21615;-58
2023/04/15 06:33:32;;;;;;;16.77;12.18;;;;;;;9.47;79.28;99213.66;1629564;86;22291;-59
2023/04/15 06:35:58;;;;;;;16.73;10.90;;;;;;;9.53;79.48;99214.64;1616770;86;21031;-59
2023/04/15 06:38:32;;;;;;;16.97;11.57;;;;;;;9.63;79.20;99214.56;1616477;86;21027;-58
2023/04/15 06:40:55;;;;;;;13.75;10.72;;;;;;;9.68;79.04;99217.38;1620848;86;21023;-58
2023/04/15 06:43:21;;;;;;;9.38;8.40;;;;;;;9.71;78.90;99221.13;1616368;86;21025;-58
2023/04/15 06:45:49;;;;;;;16.50;12.82;;;;;;;9.70;78.83;99227.28;1617316;86;21089;-58
2023/04/15 06:48:16;;;;;;;15.80;11.03;;;;;;;9.72;78.79;99218.89;1624081;86;21093;-58
2023/04/15 06:50:47;;;;;;;13.28;9.05;;;;;;;9.83;78.83;99229.17;1619957;86;21654;-59
2023/04/15 06:53:12;;;;;;;15.90;11.45;;;;;;;9.89;78.60;99228.02;1614628;86;21098;-57
2023/04/15 06:55:40;;;;;;;17.00;10.68;;;;;;;9.94;78.34;99231.23;1623222;86;21042;-58
2023/04/15 06:58:06;;;;;;;13.03;8.85;;;;;;;10.03;78.25;99235.95;1618700;86;21537;-58
2023/04/15 07:00:37;;;;;;;13.22;8.43;;;;;;;10.06;78.16;99235.78;1621131;86;21506;-58
2023/04/15 07:03:03;;;;;;;14.05;10.15;;;;;;;10.03;77.67;99230.73;1605816;87;21559;-58
2023/04/15 07:05:31;;;;;;;13.10;8.45;;;;;;;10.03;77.73;99237.25;1607356;87;21031;-58
2023/04/15 07:07:57;;;;;;;10.32;8.85;;;;;;;9.97;77.59;99238.89;1614166;87;21137;-62
2023/04/15 07:10:24;;;;;;;11.28;8.45;;;;;;;10.04;77.81;99248.05;1608322;87;21001;-58
2023/04/15 07:12:50;;;;;;;11.50;7.83;;;;;;;10.11;77.34;99242.08;1610686;87;20972;-58
2023/04/15 07:15:19;;;;;;;11.93;9.93;;;;;;;10.12;77.05;99245.52;1613850;87;21024;-58
2023/04/15 07:17:46;;;;;;;13.72;9.80;;;;;;;10.14;76.64;99252.78;1599884;88;20973;-58
2023/04/15 07:20:12;;;;;;;8.83;7.87;;;;;;;10.20;77.10;99242.05;1615382;87;22645;-58
2023/04/15 07:22:39;;;;;;;11.18;8.45;;;;;;;10.20;76.95;99236.83;1615117;87;21045;-58
2023/04/15 07:25:08;;;;;;;10.72;8.60;;;;;;;10.19;76.61;99248.16;1616685;86;21011;-58
2023/04/15 07:27:34;;;;;;;10.53;7.72;;;;;;;10.16;77.12;99243.11;1613722;87;21049;-58
2023/04/15 07:30:02;;;;;;;13.75;8.00;;;;;;;10.22;77.05;99250.17;1609672;87;21039;-58
2023/04/15 07:32:28;;;;;;;11.90;10.60;;;;;;;10.25;76.70;99253.05;1613701;87;21522;-58
2023/04/15 07:34:54;;;;;;;8.35;7.47;;;;;;;10.30;77.27;99237.56;1610745;85;21541;-58
2023/04/15 07:37:21;;;;;;;8.75;7.28;;;;;;;10.41;76.75;99234.38;1619434;87;21115;-59
2023/04/15 07:39:47;;;;;;;12.25;8.33;;;;;;;10.47;76.50;99237.98;1612747;87;21031;-58
2023/04/15 07:42:14;;;;;;;11.08;8.25;;;;;;;10.50;76.04;99266.53;1617790;87;21594;-58
2023/04/15 07:44:40;;;;;;;9.55;7.92;;;;;;;10.58;76.55;99240.45;1616490;87;21494;-58
2023/04/15 07:47:07;;;;;;;9.25;7.87;;;;;;;10.67;75.80;99246.46;1613295;87;21047;-58
2023/04/15 07:49:33;;;;;;;9.33;7.40;;;;;;;10.82;76.28;99235.19;1612141;87;21032;-58
2023/04/15 07:51:59;;;;;;;9.35;7.25;;;;;;;11.15;76.11;99245.97;1613764;87;21046;-58
2023/04/15 07:54:26;;;;;;;9.13;7.65;;;;;;;11.15;76.11;99245.97;1616385;87;20988;-58
2023/04/15 07:56:52;;;;;;;8.85;7.67;;;;;;;11.48;75.79;99241.00;1613221;87;21041;-58
2023/04/15 07:59:19;;;;;;;9.73;6.87;;;;;;;11.82;75.18;99253.78;1609266;87;21026;-58
2023/04/15 08:01:45;;;;;;;8.35;7.50;;;;;;;12.25;72.60;99253.81;1613554;87;21516;-59
2023/04/15 08:04:11;;;;;;;11.75;8.00;;;;;;;12.25;72.60;99253.81;1629182;86;21091;-58
2023/04/15 08:06:38;;;;;;;8.78;7.53;;;;;;;12.43;74.12;99244.45;1623555;86;21055;-58
2023/04/15 08:09:06;;;;;;;9.00;7.30;;;;;;;12.83;74.76;99245.87;1621603;86;21035;-58
2023/04/15 08:11:33;;;;;;;10.88;7.28;;;;;;;13.63;74.81;99231.83;1628140;86;21113;-59
2023/04/15 08:13:59;;;;;;;12.25;7.22;;;;;;;14.31;71.77;99232.41;1619233;86;21045;-58
2023/04/15 08:16:27;;;;;;;13.15;7.67;;;;;;;14.69;70.98;99244.66;1622418;86;21072;-59
2023/04/15 08:18:55;;;;;;;9.78;7.17;;;;;;;14.26;67.61;99237.17;1622974;86;21035;-58
2023/04/15 08:21:22;;;;;;;7.08;6.28;;;;;;;13.84;69.10;99247.08;1620084;86;21031;-58
2023/04/15 08:23:50;;;;;;;10.13;6.92;;;;;;;13.64;69.09;99237.46;1619667;86;21462;-58
2023/04/15 08:26:17;;;;;;;9.93;7.60;;;;;;;13.49;69.80;99238.47;1618704;86;21067;-60
2023/04/15 08:28:45;;;;;;;11.10;7.97;;;;;;;13.42;68.25;99256.89;1623406;86;21751;-59
2023/04/15 08:31:16;;;;;;;13.20;7.87;;;;;;;13.31;67.51;99272.49;1620853;86;21409;-59
2023/04/15 08:33:43;;;;;;;7.72;6.92;;;;;;;13.33;66.78;99255.72;1622928;86;21009;-58
2023/04/15 08:36:09;;;;;;;7.53;6.05;;;;;;;13.52;67.05;99259.25;1622566;86;21022;-58
2023/04/15 08:38:36;;;;;;;9.80;7.20;;;;;;;13.52;67.92;99250.06;1623742;86;21021;-58
2023/04/15 08:41:06;;;;;;;11.05;7.90;;;;;;;13.42;66.53;99255.58;1619859;86;21593;-58
2023/04/15 08:43:38;;;;;;;9.08;7.00;;;;;;;13.28;66.13;99264.83;1617428;86;21034;-58
2023/04/15 08:46:08;;;;;;;10.48;7.87;;;;;;;13.14;67.30;99253.91;1618169;86;20996;-58
2023/04/15 08:48:37;;;;;;;7.75;6.53;;;;;;;12.99;66.59;99259.64;1626802;86;21059;-58
2023/04/15 08:51:06;;;;;;;7.53;6.72;;;;;;;12.84;67.69;99255.41;1620764;86;20947;-58
2023/04/15 08:53:34;;;;;;;8.55;7.05;;;;;;;12.75;66.76;99270.77;1619036;86;21026;-60
2023/04/15 08:56:06;;;;;;;10.35;7.00;;;;;;;12.72;67.59;99252.63;1614951;86;21007;-58
2023/04/15 08:58:33;;;;;;;9.85;6.55;;;;;;;12.71;67.38;99250.92;1619143;86;21077;-58
2023/04/15 09:01:02;;;;;;;10.60;7.10;;;;;;;12.80;66.08;99264.38;1622071;86;21031;-58
2023/04/15 09:03:29;;;;;;;8.08;6.70;;;;;;;12.72;66.06;99273.58;1616831;85;21561;-58
2023/04/15 09:05:59;;;;;;;9.15;6.78;;;;;;;12.59;65.15;99267.42;1619052;86;21013;-58
2023/04/15 09:08:26;;;;;;;9.28;6.80;;;;;;;12.55;66.47;99258.09;1621045;86;20990;-58
2023/04/15 09:10:53;;;;;;;10.17;7.33;;;;;;;12.53;66.46;99260.80;1617086;86;21061;-58
2023/04/15 09:13:20;;;;;;;11.30;7.70;;;;;;;12.43;66.02;99269.31;1622810;86;21048;-58
2023/04/15 09:15:47;;;;;;;9.07;6.77;;;;;;;12.43;66.89;99256.22;1615396;86;21067;-58
2023/04/15 09:18:15;;;;;;;10.28;6.92;;;;;;;12.49;66.51;99259.77;1621948;86;21786;-58
2023/04/15 09:20:42;;;;;;;7.25;6.45;;;;;;;12.49;66.51;99259.77;1619825;86;21072;-58
2023/04/15 09:23:17;;;;;;;7.47;6.37;;;;;;;12.45;66.42;99267.45;1620432;86;21114;-58
2023/04/15 09:25:44;;;;;;;8.13;7.05;;;;;;;12.54;66.70;99265.09;1622668;86;21085;-59
2023/04/15 09:28:10;;;;;;;8.60;6.95;;;;;;;12.45;66.04;99279.23;1620450;86;21122;-58
2023/04/15 09:30:37;;;;;;;8.20;7.05;;;;;;;12.32;66.05;99272.59;1617970;86;21066;-58
2023/04/15 09:33:07;;;;;;;8.05;6.40;;;;;;;12.13;66.09;99280.75;1618842;86;21024;-58
2023/04/15 09:35:37;;;;;;;9.43;7.30;;;;;;;12.00;66.29;99274.56;1628944;86;21059;-58
2023/04/15 09:38:06;;;;;;;7.90;6.35;;;;;;;11.91;66.05;99272.52;1623662;86;22216;-58
2023/04/15 09:40:36;;;;;;;13.38;6.85;;;;;;;11.71;66.10;99282.35;1621286;86;21519;-58
2023/04/15 09:43:04;;;;;;;9.08;7.20;;;;;;;11.70;66.51;99279.34;1620645;86;20967;-58
2023/04/15 09:45:33;;;;;;;9.03;7.03;;;;;;;11.76;66.77;99274.21;1625711;86;21015;-58
2023/04/15 09:48:15;;;;;;;7.55;6.22;;;;;;;11.78;66.66;99271.88;1623603;86;21067;-59
2023/04/15 09:50:42;;;;;;;9.20;6.40;;;;;;;11.73;66.39;99283.08;1629680;86;20999;-59
2023/04/15 09:53:18;;;;;;;9.93;6.75;;;;;;;11.48;66.40;99274.99;1625854;86;20968;-59
2023/04/15 09:55:51;;;;;;;7.35;5.92;;;;;;;11.26;66.32;99276.25;1609710;86;21625;-59
2023/04/15 09:58:26;;;;;;;10.13;7.05;;;;;;;11.09;66.96;99281.56;1621747;86;21103;-59
2023/04/15 10:00:55;;;;;;;7.83;6.83;;;;;;;11.05;66.93;99282.68;1619656;86;21549;-59
2023/04/15 10:03:28;;;;;;;8.28;7.03;;;;;;;10.96;67.16;99284.87;1620883;86;21119;-59
2023/04/15 10:05:59;;;;;;;8.38;6.37;;;;;;;10.95;67.43;99292.34;1618463;87;21541;-59
2023/04/15 10:08:28;;;;;;;9.43;7.20;;;;;;;10.90;66.92;99282.61;1619671;87;21027;-59
2023/04/15 10:10:57;;;;;;;9.80;7.35;;;;;;;10.76;67.73;99266.87;1623112;87;21114;-59
2023/04/15 10:13:28;;;;;;;8.28;6.70;;;;;;;10.80;67.31;99284.03;1610702;87;21546;-59
2023/04/15 10:16:13;;;;;;;8.28;6.78;;;;;;;10.71;67.37;99275.41;1617759;87;21003;-60
2023/04/15 10:18:44;;;;;;;8.95;7.10;;;;;;;10.71;67.32;99279.33;1613434;87;21075;-61
2023/04/15 10:21:17;;;;;;;10.82;8.23;;;;;;;10.67;68.06;99290.84;1619412;87;21082;-61
2023/04/15 10:23:40;;;;;;;13.28;6.67;;;;;;;10.79;68.07;99291.50;1615587;87;21063;-61
2023/04/15 10:26:19;;;;;;;10.48;7.12;;;;;;;10.79;68.10;99292.80;1609729;87;21035;-60
2023/04/15 10:28:43;;;;;;;9.90;6.67;;;;;;;10.73;68.31;99283.55;1615454;87;21071;-60
2023/04/15 10:31:13;;;;;;;7.78;6.97;;;;;;;10.79;68.10;99281.05;1615003;87;21494;-60
2023/04/15 10:33:42;;;;;;;11.55;7.00;;;;;;;10.84;68.54;99268.59;1620405;87;21525;-59
2023/04/15 10:36:09;;;;;;;7.53;6.62;;;;;;;11.14;68.35;99281.68;1614842;87;21051;-63
2023/04/15 10:38:39;;;;;;;10.10;7.30;;;;;;;11.14;68.35;99281.68;1614551;87;21040;-62
2023/04/15 10:41:23;;;;;;;7.72;6.65;;;;;;;11.21;68.22;99274.36;1620927;87;21038;-62
2023/04/15 10:43:55;;;;;;;8.48;6.70;;;;;;;11.24;68.45;99277.27;1613924;87;21048;-61
2023/04/15 10:46:37;;;;;;;7.30;6.28;;;;;;;11.35;68.41;99275.71;1620704;87;21030;-61
2023/04/15 10:49:12;;;;;;;8.50;6.50;;;;;;;11.36;68.30;99285.70;1607220;87;21050;-61
2023/04/15 10:51:42;;;;;;;9.23;6.20;;;;;;;11.53;68.64;99278.19;1613026;87;21567;-60
2023/04/15 10:54:15;;;;;;;9.93;6.30;;;;;;;11.73;68.30;99282.24;1620436;87;21098;-61
2023/04/15 10:56:42;;;;;;;7.75;6.28;;;;;;;11.81;67.71;99284.78;1617970;87;21139;-61
2023/04/15 10:59:09;;;;;;;9.53;6.12;;;;;;;11.86;67.82;99281.46;1611079;87;20995;-62
2023/04/15 11:02:01;;;;;;;7.47;5.77;;;;;;;11.81;67.50;99288.70;1617169;87;21083;-60
2023/04/15 11:04:57;;;;;;;7.15;6.33;;;;;;;11.74;67.30;99297.02;1623416;86;21067;-62
2023/04/15 11:07:47;;;;;;;7.03;6.12;;;;;;;11.65;67.45;99293.17;1617927;86;21006;-65
2023/04/15 11:10:26;;;;;;;7.22;5.53;;;;;;;11.48;67.29;99316.82;1617058;86;21019;-62
2023/04/15 11:13:07;;;;;;;6.87;5.70;;;;;;;11.37;67.75;99289.55;1624318;86;22429;-62
2023/04/15 11:15:47;;;;;;;9.43;5.75;;;;;;;11.48;67.99;99280.22;1612401;86;21065;-62
2023/04/15 11:18:20;;;;;;;8.58;5.65;;;;;;;11.52;67.66;99282.58;1621050;86;21046;-60
2023/04/15 11:20:55;;;;;;;9.85;6.10;;;;;;;11.43;67.47;99282.65;1624202;86;21525;-61
2023/04/15 11:23:35;;;;;;;6.55;5.53;;;;;;;11.41;67.64;99287.59;1621327;86;20975;-63
2023/04/15 11:26:10;;;;;;;7.22;5.92;;;;;;;11.40;67.42;99301.13;1621616;86;21048;-58
2023/04/15 11:28:44;;;;;;;6.35;5.60;;;;;;;11.39;67.45;99286.35;1626562;86;21023;-58
2023/04/15 11:31:13;;;;;;;7.03;5.22;;;;;;;11.42;67.82;99295.32;1627745;86;21000;-58
2023/04/15 11:34:08;;;;;;;6.40;5.22;;;;;;;11.45;67.84;99283.02;1619484;86;21201;-59